createdAt,value
2023-02-23T00:00:21.476Z,13.88
2023-02-23T00:02:49.304Z,13.81
2023-02-23T00:05:22.434Z,13.77
2023-02-23T00:07:49.010Z,13.73
2023-02-23T00:10:15.582Z,13.69
2023-02-23T00:13:02.225Z,13.74
2023-02-23T00:15:29.007Z,13.81
2023-02-23T00:18:02.857Z,13.86
2023-02-23T00:20:29.321Z,13.89
2023-02-23T00:22:58.526Z,13.91
2023-02-23T00:25:25.624Z,13.88
2023-02-23T00:27:52.342Z,13.86
2023-02-23T00:30:19.930Z,13.95
2023-02-23T00:32:46.941Z,13.97
2023-02-23T00:35:13.526Z,13.98
2023-02-23T00:37:40.058Z,14.04
2023-02-23T00:40:06.943Z,14.08
2023-02-23T00:42:35.357Z,14.06
2023-02-23T00:45:04.317Z,14.11
2023-02-23T00:47:30.900Z,14.12
2023-02-23T00:50:04.753Z,14.14
2023-02-23T00:52:31.569Z,14.13
2023-02-23T00:55:01.393Z,14.04
2023-02-23T00:57:27.913Z,14.05
2023-02-23T00:59:54.445Z,14.10
2023-02-23T01:02:20.982Z,14.08
2023-02-23T01:04:47.541Z,14.05
2023-02-23T01:07:16.680Z,14.00
2023-02-23T01:09:43.180Z,13.98
2023-02-23T01:12:09.653Z,13.93
2023-02-23T01:14:37.112Z,13.89
2023-02-23T01:17:03.696Z,13.88
2023-02-23T01:19:30.326Z,13.97
2023-02-23T01:22:02.044Z,13.89
2023-02-23T01:24:31.163Z,13.79
2023-02-23T01:26:57.755Z,13.80
2023-02-23T01:29:24.406Z,13.78
2023-02-23T01:31:51.306Z,13.78
2023-02-23T01:34:19.973Z,13.81
2023-02-23T01:36:46.496Z,13.76
2023-02-23T01:39:21.127Z,13.64
2023-02-23T01:41:48.620Z,13.66
2023-02-23T01:44:15.113Z,13.61
2023-02-23T01:46:45.203Z,13.65
2023-02-23T01:49:19.598Z,13.71
2023-02-23T01:51:52.277Z,13.70
2023-02-23T01:54:24.396Z,13.68
2023-02-23T01:56:55.131Z,13.65
2023-02-23T01:59:21.881Z,13.65
2023-02-23T02:01:48.400Z,13.64
2023-02-23T02:04:15.170Z,13.66
2023-02-23T02:06:45.738Z,13.73
2023-02-23T02:09:16.323Z,13.69
2023-02-23T02:11:43.290Z,13.68
2023-02-23T02:14:15.950Z,13.67
2023-02-23T02:17:04.770Z,13.63
2023-02-23T02:20:07.480Z,13.55
2023-02-23T02:23:14.584Z,13.58
2023-02-23T02:26:03.618Z,13.68
2023-02-23T02:28:54.797Z,13.62
2023-02-23T02:31:39.834Z,13.74
2023-02-23T02:34:21.255Z,13.80
2023-02-23T02:37:08.942Z,13.83
2023-02-23T02:39:52.688Z,13.90
2023-02-23T02:42:38.524Z,13.97
2023-02-23T02:45:26.815Z,13.85
2023-02-23T02:48:08.593Z,13.96
2023-02-23T02:50:58.039Z,14.02
2023-02-23T02:53:33.194Z,14.02
2023-02-23T02:56:04.103Z,13.93
2023-02-23T02:58:31.644Z,13.86
2023-02-23T03:01:07.356Z,13.78
2023-02-23T03:03:38.785Z,13.79
2023-02-23T03:06:05.526Z,13.75
2023-02-23T03:08:44.762Z,13.75
2023-02-23T03:11:14.285Z,13.71
2023-02-23T03:14:12.823Z,13.72
2023-02-23T03:16:56.436Z,13.53
2023-02-23T03:19:30.109Z,13.50
2023-02-23T03:22:34.699Z,13.54
2023-02-23T03:25:14.389Z,13.48
2023-02-23T03:28:05.958Z,13.50
2023-02-23T03:30:45.883Z,13.40
2023-02-23T03:33:23.838Z,13.33
2023-02-23T03:36:19.203Z,13.49
2023-02-23T03:38:58.627Z,13.55
2023-02-23T03:41:29.241Z,13.63
2023-02-23T03:44:01.934Z,13.68
2023-02-23T03:46:31.901Z,13.52
2023-02-23T03:49:04.688Z,13.65
2023-02-23T03:51:36.898Z,13.56
2023-02-23T03:54:13.434Z,13.64
2023-02-23T03:56:45.909Z,13.77
2023-02-23T03:59:18.716Z,13.71
2023-02-23T04:01:48.105Z,13.77
2023-02-23T04:04:14.622Z,13.78
2023-02-23T04:06:46.555Z,13.75
2023-02-23T04:09:13.498Z,13.71
2023-02-23T04:11:56.342Z,13.57
2023-02-23T04:14:37.808Z,13.32
2023-02-23T04:17:07.000Z,13.33
2023-02-23T04:19:33.521Z,13.39
2023-02-23T04:22:00.017Z,13.39
2023-02-23T04:24:26.563Z,13.37
2023-02-23T04:26:53.060Z,13.43
2023-02-23T04:29:19.540Z,13.47
2023-02-23T04:31:46.217Z,13.50
2023-02-23T04:34:12.749Z,13.47
2023-02-23T04:36:39.350Z,13.47
2023-02-23T04:39:05.976Z,13.52
2023-02-23T04:41:32.494Z,13.51
2023-02-23T04:43:58.978Z,13.43
2023-02-23T04:46:25.544Z,13.47
2023-02-23T04:48:52.020Z,13.41
2023-02-23T04:51:18.884Z,13.49
2023-02-23T04:53:45.816Z,13.46
2023-02-23T04:56:12.284Z,13.53
2023-02-23T04:58:38.881Z,13.56
2023-02-23T05:01:08.198Z,13.54
2023-02-23T05:03:34.792Z,13.43
2023-02-23T05:06:01.362Z,13.44
2023-02-23T05:08:27.835Z,13.45
2023-02-23T05:10:54.441Z,13.43
2023-02-23T05:13:21.059Z,13.42
2023-02-23T05:15:47.636Z,13.50
2023-02-23T05:18:14.348Z,13.53
2023-02-23T05:20:44.203Z,13.52
2023-02-23T05:23:11.636Z,13.55
2023-02-23T05:25:39.162Z,13.56
2023-02-23T05:28:05.941Z,13.56
2023-02-23T05:30:32.921Z,13.56
2023-02-23T05:32:59.641Z,13.56
2023-02-23T05:35:26.305Z,13.58
2023-02-23T05:37:52.881Z,13.51
2023-02-23T05:40:19.444Z,13.47
2023-02-23T05:42:46.095Z,13.40
2023-02-23T05:45:15.299Z,13.43
2023-02-23T05:47:41.856Z,13.46
2023-02-23T05:50:10.229Z,13.40
2023-02-23T05:52:40.732Z,13.30
2023-02-23T05:55:09.631Z,13.38
2023-02-23T05:57:36.160Z,13.34
2023-02-23T06:00:04.116Z,13.36
2023-02-23T06:02:30.666Z,13.39
2023-02-23T06:04:57.198Z,13.34
2023-02-23T06:07:23.813Z,13.34
2023-02-23T06:09:50.404Z,13.36
2023-02-23T06:12:16.897Z,13.30
2023-02-23T06:14:43.426Z,13.36
2023-02-23T06:17:09.966Z,13.38
2023-02-23T06:19:36.500Z,13.42
2023-02-23T06:22:03.075Z,13.39
2023-02-23T06:24:29.573Z,13.36
2023-02-23T06:26:56.194Z,13.45
2023-02-23T06:29:22.789Z,13.47
2023-02-23T06:31:49.423Z,13.48
2023-02-23T06:34:15.951Z,13.45
2023-02-23T06:36:42.521Z,13.51
2023-02-23T06:39:11.426Z,13.48
2023-02-23T06:41:38.293Z,13.55
2023-02-23T06:44:04.965Z,13.60
2023-02-23T06:46:31.619Z,13.67
2023-02-23T06:48:58.482Z,13.58
2023-02-23T06:51:25.156Z,13.55
2023-02-23T06:53:51.944Z,13.54
2023-02-23T06:56:18.971Z,13.57
2023-02-23T06:58:45.482Z,13.68
2023-02-23T07:01:12.089Z,13.70
2023-02-23T07:03:38.918Z,13.65
2023-02-23T07:06:05.749Z,13.66
2023-02-23T07:08:33.713Z,13.68
2023-02-23T07:11:12.079Z,13.67
2023-02-23T07:13:39.343Z,13.62
2023-02-23T07:16:07.277Z,13.69
2023-02-23T07:18:34.320Z,13.72
2023-02-23T07:21:00.805Z,13.72
2023-02-23T07:23:27.411Z,13.63
2023-02-23T07:25:54.284Z,13.54
2023-02-23T07:28:20.771Z,13.47
2023-02-23T07:30:47.364Z,13.39
2023-02-23T07:33:14.011Z,13.50
2023-02-23T07:35:40.502Z,13.55
2023-02-23T07:38:07.045Z,13.65
2023-02-23T07:40:33.520Z,13.69
2023-02-23T07:43:00.105Z,13.67
2023-02-23T07:45:26.671Z,13.66
2023-02-23T07:47:53.217Z,13.76
2023-02-23T07:50:19.818Z,13.83
2023-02-23T07:52:46.397Z,13.85
2023-02-23T07:55:12.907Z,13.83
2023-02-23T07:57:39.522Z,13.98
2023-02-23T08:00:07.887Z,14.07
2023-02-23T08:02:34.479Z,14.07
2023-02-23T08:05:01.091Z,14.13
2023-02-23T08:07:27.647Z,14.13
2023-02-23T08:09:54.181Z,14.15
2023-02-23T08:12:20.708Z,14.30
2023-02-23T08:14:47.649Z,14.35
2023-02-23T08:17:14.208Z,14.45
2023-02-23T08:19:40.722Z,14.51
2023-02-23T08:22:09.899Z,14.56
2023-02-23T08:24:37.121Z,14.58
2023-02-23T08:27:04.229Z,14.62
2023-02-23T08:29:31.095Z,14.65
2023-02-23T08:31:59.002Z,14.72
2023-02-23T08:34:25.629Z,14.83
2023-02-23T08:36:52.095Z,14.73
2023-02-23T08:39:18.871Z,14.69
2023-02-23T08:41:45.390Z,14.66
2023-02-23T08:44:12.030Z,14.52
2023-02-23T08:46:38.542Z,14.30
2023-02-23T08:49:05.160Z,14.41
2023-02-23T08:51:32.938Z,14.54
2023-02-23T08:53:59.466Z,14.60
2023-02-23T08:56:26.046Z,14.66
2023-02-23T08:58:52.573Z,14.72
2023-02-23T09:01:24.990Z,14.74
2023-02-23T09:03:53.753Z,14.39
2023-02-23T09:06:29.955Z,14.42
2023-02-23T09:08:56.534Z,14.52
2023-02-23T09:11:24.272Z,14.49
2023-02-23T09:13:50.909Z,14.61
2023-02-23T09:16:17.550Z,14.67
2023-02-23T09:18:44.640Z,14.75
2023-02-23T09:21:18.289Z,14.80
2023-02-23T09:23:45.446Z,14.86
2023-02-23T09:26:12.040Z,14.87
2023-02-23T09:28:38.631Z,14.97
2023-02-23T09:31:07.641Z,15.12
2023-02-23T09:33:35.068Z,15.14
2023-02-23T09:36:08.846Z,15.22
2023-02-23T09:38:35.348Z,15.10
2023-02-23T09:41:02.027Z,14.95
2023-02-23T09:43:50.678Z,14.75
2023-02-23T09:46:41.615Z,14.84
2023-02-23T09:49:17.638Z,14.80
2023-02-23T09:51:51.327Z,14.92
2023-02-23T09:54:19.187Z,14.87
2023-02-23T09:56:48.489Z,14.90
2023-02-23T09:59:21.797Z,15.08
2023-02-23T10:01:52.892Z,15.33
2023-02-23T10:04:25.078Z,15.32
2023-02-23T10:07:04.670Z,15.24
2023-02-23T10:10:07.893Z,15.33
2023-02-23T10:13:02.242Z,15.45
2023-02-23T10:15:42.455Z,15.56
2023-02-23T10:18:30.681Z,15.46
2023-02-23T10:21:11.798Z,15.52
2023-02-23T10:23:46.195Z,15.46
2023-02-23T10:26:21.455Z,15.60
2023-02-23T10:28:48.962Z,15.57
2023-02-23T10:31:44.196Z,15.53
2023-02-23T10:34:16.520Z,15.41
2023-02-23T10:37:04.452Z,15.65
2023-02-23T10:39:32.891Z,15.81
2023-02-23T10:42:05.744Z,15.90
2023-02-23T10:44:32.307Z,16.10
2023-02-23T10:47:06.445Z,15.93
2023-02-23T10:49:45.015Z,16.12
2023-02-23T10:52:42.529Z,16.17
2023-02-23T10:55:22.739Z,16.04
2023-02-23T10:57:51.012Z,15.90
2023-02-23T11:00:17.418Z,16.18
2023-02-23T11:02:45.850Z,16.00
2023-02-23T11:05:35.778Z,15.68
2023-02-23T11:08:37.019Z,15.97
2023-02-23T11:11:15.941Z,16.07
2023-02-23T11:13:45.309Z,15.71
2023-02-23T11:16:20.602Z,13.83
2023-02-23T11:19:02.836Z,13.85
2023-02-23T11:21:33.101Z,13.53
2023-02-23T11:24:22.233Z,13.79
2023-02-23T11:26:52.613Z,14.35
2023-02-23T11:29:38.613Z,14.72
2023-02-23T11:32:22.578Z,14.47
2023-02-23T11:35:14.037Z,14.73
2023-02-23T11:37:40.538Z,14.90
2023-02-23T11:40:26.660Z,15.24
2023-02-23T11:43:05.854Z,15.49
2023-02-23T11:45:43.727Z,15.49
2023-02-23T11:48:33.012Z,15.53
2023-02-23T11:51:01.322Z,15.52
2023-02-23T11:53:34.960Z,15.66
2023-02-23T11:56:05.508Z,15.65
2023-02-23T11:58:39.214Z,15.44
2023-02-23T12:01:09.265Z,15.98
2023-02-23T12:03:36.444Z,16.00
2023-02-23T12:06:03.135Z,16.07
2023-02-23T12:08:35.220Z,15.89
2023-02-23T12:11:12.968Z,16.17
2023-02-23T12:13:46.205Z,16.17
2023-02-23T12:16:29.830Z,15.97
2023-02-23T12:19:06.325Z,15.99
2023-02-23T12:21:44.722Z,16.36
2023-02-23T12:24:29.865Z,16.17
2023-02-23T12:27:09.041Z,16.46
2023-02-23T12:30:03.458Z,16.39
2023-02-23T12:32:45.603Z,16.44
2023-02-23T12:35:37.742Z,16.42
2023-02-23T12:38:12.643Z,16.62
2023-02-23T12:40:41.625Z,16.46
2023-02-23T12:43:40.246Z,16.55
2023-02-23T12:46:14.628Z,16.62
2023-02-23T12:49:02.144Z,16.88
2023-02-23T12:51:28.617Z,16.58
2023-02-23T12:53:55.287Z,16.92
2023-02-23T12:56:32.005Z,17.10
2023-02-23T12:59:36.899Z,17.46
2023-02-23T13:02:14.632Z,17.59
2023-02-23T13:05:03.629Z,17.55
2023-02-23T13:07:53.966Z,17.38
2023-02-23T13:10:44.684Z,17.33
2023-02-23T13:13:27.487Z,17.31
2023-02-23T13:16:02.390Z,17.47
2023-02-23T13:19:05.055Z,17.57
2023-02-23T13:21:47.803Z,17.24
2023-02-23T13:24:25.036Z,17.49
2023-02-23T13:27:18.165Z,17.71
2023-02-23T13:29:47.681Z,17.96
2023-02-23T13:32:19.228Z,18.15
2023-02-23T13:34:52.104Z,18.17
2023-02-23T13:37:23.919Z,18.34
2023-02-23T13:40:24.375Z,18.45
2023-02-23T13:43:16.677Z,18.45
2023-02-23T13:46:17.279Z,18.48
2023-02-23T13:48:58.412Z,18.45
2023-02-23T13:51:39.277Z,18.48
2023-02-23T13:54:26.141Z,18.30
2023-02-23T13:56:59.613Z,18.08
2023-02-23T13:59:30.245Z,18.30
2023-02-23T14:01:59.674Z,18.36
2023-02-23T14:04:34.114Z,18.26
2023-02-23T14:07:17.932Z,18.26
2023-02-23T14:09:58.491Z,18.17
2023-02-23T14:12:42.594Z,18.21
2023-02-23T14:15:24.543Z,18.06
2023-02-23T14:17:56.993Z,18.21
2023-02-23T14:20:44.292Z,18.14
2023-02-23T14:23:29.485Z,18.18
2023-02-23T14:26:13.904Z,18.23
2023-02-23T14:28:45.048Z,18.50
2023-02-23T14:31:14.395Z,18.58
2023-02-23T14:33:43.708Z,18.62
2023-02-23T14:36:25.320Z,19.09
2023-02-23T14:39:00.999Z,19.45
2023-02-23T14:41:33.988Z,19.16
2023-02-23T14:44:27.115Z,19.16
2023-02-23T14:47:17.428Z,18.95
2023-02-23T14:50:02.478Z,19.05
2023-02-23T14:52:35.044Z,18.65
2023-02-23T14:55:27.922Z,18.82
2023-02-23T14:57:55.325Z,18.71
2023-02-23T15:00:26.056Z,18.58
2023-02-23T15:03:08.075Z,18.34
2023-02-23T15:05:42.477Z,18.48
2023-02-23T15:08:16.964Z,18.45
2023-02-23T15:10:49.979Z,18.47
2023-02-23T15:13:31.698Z,18.42
2023-02-23T15:16:05.198Z,18.50
2023-02-23T15:18:38.566Z,18.72
2023-02-23T15:21:16.043Z,18.68
2023-02-23T15:23:48.725Z,18.75
2023-02-23T15:26:24.209Z,18.69
2023-02-23T15:28:51.431Z,18.81
2023-02-23T15:31:19.357Z,18.88
2023-02-23T15:33:46.087Z,18.87
2023-02-23T15:36:30.504Z,18.97
2023-02-23T15:39:04.490Z,19.03
2023-02-23T15:41:37.081Z,19.24
2023-02-23T15:44:14.826Z,19.48
2023-02-23T15:46:44.854Z,19.66
2023-02-23T15:49:13.631Z,19.70
2023-02-23T15:51:51.444Z,19.72
2023-02-23T15:54:24.423Z,19.84
2023-02-23T15:56:56.796Z,19.78
2023-02-23T15:59:29.936Z,19.75
2023-02-23T16:02:03.620Z,19.75
2023-02-23T16:04:33.544Z,19.70
2023-02-23T16:07:18.053Z,19.51
2023-02-23T16:10:03.193Z,19.35
2023-02-23T16:12:35.486Z,19.38
2023-02-23T16:15:17.655Z,19.21
2023-02-23T16:17:47.464Z,19.19
2023-02-23T16:20:33.537Z,19.05
2023-02-23T16:23:02.282Z,18.93
2023-02-23T16:25:31.632Z,18.63
2023-02-23T16:28:05.391Z,18.64
2023-02-23T16:30:31.875Z,18.58
2023-02-23T16:33:22.364Z,18.43
2023-02-23T16:36:05.364Z,18.43
2023-02-23T16:38:37.875Z,18.30
2023-02-23T16:41:10.458Z,18.12
2023-02-23T16:43:37.453Z,17.84
2023-02-23T16:46:04.129Z,17.91
2023-02-23T16:48:30.703Z,17.82
2023-02-23T16:50:57.298Z,17.76
2023-02-23T16:53:23.835Z,17.66
2023-02-23T16:55:53.996Z,17.54
2023-02-23T16:58:26.167Z,17.50
2023-02-23T17:00:52.906Z,17.43
2023-02-23T17:03:25.634Z,17.37
2023-02-23T17:05:53.115Z,17.27
2023-02-23T17:08:19.725Z,17.24
2023-02-23T17:10:49.849Z,17.17
2023-02-23T17:13:22.692Z,17.14
2023-02-23T17:15:51.855Z,17.05
2023-02-23T17:20:56.812Z,16.89
2023-02-23T17:23:24.940Z,16.88
2023-02-23T17:25:51.423Z,16.87
2023-02-23T17:28:17.905Z,16.82
2023-02-23T17:30:45.146Z,16.80
2023-02-23T17:33:11.939Z,16.75
2023-02-23T17:35:40.876Z,16.66
2023-02-23T17:38:08.148Z,16.62
2023-02-23T17:40:35.305Z,16.61
2023-02-23T17:43:04.984Z,16.45
2023-02-23T17:45:31.947Z,16.33
2023-02-23T17:47:58.572Z,16.29
2023-02-23T17:50:28.908Z,16.28
2023-02-23T17:52:57.945Z,16.25
2023-02-23T17:55:25.848Z,16.16
2023-02-23T17:57:55.423Z,16.03
2023-02-23T18:00:21.970Z,15.91
2023-02-23T18:02:48.566Z,15.87
2023-02-23T18:05:18.438Z,15.81
2023-02-23T18:07:47.787Z,15.68
2023-02-23T18:10:17.644Z,15.41
2023-02-23T18:12:44.483Z,15.65
2023-02-23T18:15:11.099Z,15.69
2023-02-23T18:17:40.326Z,15.71
2023-02-23T18:20:07.296Z,15.68
2023-02-23T18:22:33.858Z,15.68
2023-02-23T18:25:00.386Z,15.74
2023-02-23T18:27:26.875Z,15.75
2023-02-23T18:29:56.236Z,15.80
2023-02-23T18:32:25.051Z,15.77
2023-02-23T18:34:51.649Z,15.76
2023-02-23T18:37:18.163Z,15.77
2023-02-23T18:39:44.675Z,15.80
2023-02-23T18:42:11.198Z,15.81
2023-02-23T18:44:37.720Z,15.87
2023-02-23T18:47:04.275Z,15.92
2023-02-23T18:49:30.765Z,15.95
2023-02-23T18:51:57.283Z,15.92
2023-02-23T18:54:23.795Z,15.96
2023-02-23T18:56:50.292Z,16.03
2023-02-23T18:59:16.778Z,16.06
2023-02-23T19:01:43.817Z,16.09
2023-02-23T19:04:11.208Z,16.10
2023-02-23T19:06:37.779Z,16.12
2023-02-23T19:09:05.828Z,15.96
2023-02-23T19:11:34.571Z,16.04
2023-02-23T19:14:05.082Z,16.05
2023-02-23T19:16:33.599Z,16.05
2023-02-23T19:19:04.742Z,16.04
2023-02-23T19:21:31.753Z,16.06
2023-02-23T19:23:59.239Z,16.09
2023-02-23T19:26:26.849Z,16.10
2023-02-23T19:28:53.672Z,16.12
2023-02-23T19:31:21.989Z,16.12
2023-02-23T19:33:49.898Z,16.12
2023-02-23T19:36:19.010Z,16.20
2023-02-23T19:38:48.336Z,16.19
2023-02-23T19:41:19.903Z,16.16
2023-02-23T19:43:46.911Z,16.15
2023-02-23T19:46:16.613Z,16.16
2023-02-23T19:48:45.647Z,16.10
2023-02-23T19:51:13.251Z,15.94
2023-02-23T19:53:40.246Z,15.94
2023-02-23T19:56:11.806Z,15.89
2023-02-23T19:58:38.766Z,15.63
2023-02-23T20:01:11.900Z,15.91
2023-02-23T20:03:39.898Z,15.94
2023-02-23T20:06:07.485Z,15.98
2023-02-23T20:08:34.346Z,15.97
2023-02-23T20:11:04.604Z,15.93
2023-02-23T20:13:31.073Z,15.92
2023-02-23T20:16:06.450Z,15.87
2023-02-23T20:18:33.016Z,15.91
2023-02-23T20:20:59.716Z,15.96
2023-02-23T20:23:26.229Z,15.92
2023-02-23T20:25:52.768Z,15.83
2023-02-23T20:28:19.312Z,15.62
2023-02-23T20:30:47.418Z,15.71
2023-02-23T20:33:14.428Z,15.77
2023-02-23T20:35:41.857Z,15.84
2023-02-23T20:38:11.061Z,15.77
2023-02-23T20:40:37.608Z,15.50
2023-02-23T20:43:05.702Z,15.41
2023-02-23T20:45:32.394Z,15.43
2023-02-23T20:47:59.039Z,15.37
2023-02-23T20:50:26.609Z,15.39
2023-02-23T20:52:53.197Z,15.37
2023-02-23T20:55:19.673Z,15.49
2023-02-23T20:57:48.157Z,15.49
2023-02-23T21:00:17.275Z,15.51
2023-02-23T21:02:43.975Z,15.49
2023-02-23T21:05:10.477Z,15.46
2023-02-23T21:07:37.103Z,15.48
2023-02-23T21:10:09.096Z,15.51
2023-02-23T21:12:35.682Z,15.52
2023-02-23T21:15:02.893Z,15.49
2023-02-23T21:17:31.995Z,15.52
2023-02-23T21:19:58.542Z,15.50
2023-02-23T21:22:25.187Z,15.54
2023-02-23T21:24:51.759Z,15.29
2023-02-23T21:27:18.438Z,15.41
2023-02-23T21:29:45.560Z,15.36
2023-02-23T21:32:13.751Z,15.41
2023-02-23T21:34:41.035Z,15.46
2023-02-23T21:37:07.556Z,15.48
2023-02-23T21:39:34.177Z,15.44
2023-02-23T21:42:00.886Z,15.34
2023-02-23T21:44:27.542Z,15.24
2023-02-23T21:46:54.026Z,15.08
2023-02-23T21:49:20.524Z,15.08
2023-02-23T21:51:47.049Z,15.05
2023-02-23T21:54:13.736Z,14.97
2023-02-23T21:56:40.208Z,14.89
2023-02-23T21:59:07.218Z,14.74
2023-02-23T22:01:36.956Z,14.73
2023-02-23T22:04:05.860Z,14.67
2023-02-23T22:06:38.445Z,14.65
2023-02-23T22:09:06.708Z,14.63
2023-02-23T22:11:33.208Z,14.61
2023-02-23T22:14:00.336Z,14.54
2023-02-23T22:16:30.457Z,14.53
2023-02-23T22:18:57.813Z,14.53
2023-02-23T22:21:24.351Z,14.59
2023-02-23T22:23:52.127Z,14.62
2023-02-23T22:26:18.592Z,14.52
2023-02-23T22:28:45.074Z,14.51
2023-02-23T22:31:13.699Z,14.59
2023-02-23T22:33:42.825Z,14.58
2023-02-23T22:36:12.112Z,14.57
2023-02-23T22:38:40.965Z,14.56
2023-02-23T22:41:08.407Z,14.48
2023-02-23T22:43:34.955Z,14.43
2023-02-23T22:46:01.463Z,14.48
2023-02-23T22:48:27.981Z,14.49
2023-02-23T22:50:58.405Z,14.49
2023-02-23T22:53:26.019Z,14.52
2023-02-23T22:55:55.155Z,14.52
2023-02-23T22:58:25.773Z,14.52
2023-02-23T23:00:53.386Z,14.42
2023-02-23T23:03:19.950Z,14.38
2023-02-23T23:05:48.972Z,14.39
2023-02-23T23:08:15.591Z,14.36
2023-02-23T23:10:42.085Z,14.35
2023-02-23T23:13:08.747Z,14.43
2023-02-23T23:15:35.294Z,14.46
2023-02-23T23:18:01.771Z,14.43
2023-02-23T23:20:32.470Z,14.40
2023-02-23T23:22:58.976Z,14.37
2023-02-23T23:25:25.884Z,14.38
2023-02-23T23:27:53.275Z,14.33
2023-02-23T23:30:20.892Z,14.07
2023-02-23T23:32:47.570Z,13.64
2023-02-23T23:35:14.215Z,13.73
2023-02-23T23:37:40.790Z,13.82
2023-02-23T23:40:11.397Z,13.67
2023-02-23T23:42:37.978Z,13.59
2023-02-23T23:45:04.932Z,13.75
2023-02-23T23:47:31.402Z,13.80
2023-02-23T23:49:57.896Z,13.92
2023-02-23T23:52:24.434Z,14.06
2023-02-23T23:54:50.979Z,14.12
2023-02-23T23:57:17.470Z,14.08
2023-02-23T23:59:43.974Z,14.10
